www.cux-wetter.de
Wetterdaten: Woche 03.01.11 - 09.01.11 (KW1)
Datum Zeit Temp. A. Feuchte A. Luftdruck Regen Wind Richtung Sonnenschein Solar Taupunkt Windchill Windben
03.01.2011 00:00 1,2 C 88 % 1018,4 hPa 0,0 l/m 13,9 km/h (3 Bft) N 0,00 h 0 W/m -0,6 C -4,8 C 13,9 km/h (3 Bft)
03.01.2011 01:00 0,9 C 87 % 1018,4 hPa 0,0 l/m 12,8 km/h (3 Bft) N 0,00 h 0 W/m -1,0 C -4,4 C 12,8 km/h (3 Bft)
03.01.2011 02:00 0,8 C 86 % 1018,5 hPa 0,0 l/m 6,4 km/h (2 Bft) N-NW 0,00 h 0 W/m -1,3 C -0,5 C 6,4 km/h (2 Bft)
03.01.2011 03:00 0,5 C 87 % 1018,5 hPa 0,0 l/m 4,2 km/h (1 Bft) N-NW 0,00 h 0 W/m -1,4 C 0,5 C 4,2 km/h (1 Bft)
03.01.2011 04:00 0,3 C 87 % 1018,5 hPa 0,0 l/m 2,4 km/h (1 Bft) N-NW 0,00 h 0 W/m -1,6 C 0,3 C 2,4 km/h (1 Bft)
03.01.2011 05:00 0,3 C 87 % 1018,5 hPa 0,0 l/m 4,4 km/h (1 Bft) NW 0,00 h 0 W/m -1,6 C 0,1 C 4,4 km/h (1 Bft)
03.01.2011 06:00 -0,4 C 86 % 1018,5 hPa 0,0 l/m 3,0 km/h (1 Bft) NW 0,00 h 0 W/m -2,4 C -0,4 C 3,0 km/h (1 Bft)
03.01.2011 07:00 -0,4 C 87 % 1018,5 hPa 0,0 l/m 5,5 km/h (2 Bft) W-NW 0,00 h 0 W/m -2,3 C -0,5 C 5,5 km/h (2 Bft)
03.01.2011 08:00 0,0 C 88 % 1018,5 hPa 0,0 l/m 7,1 km/h (2 Bft) W 0,00 h 0 W/m -1,8 C -1,0 C 7,1 km/h (2 Bft)
03.01.2011 09:00 0,2 C 89 % 1018,8 hPa 0,0 l/m 8,4 km/h (2 Bft) W 0,00 h 0 W/m -1,4 C -1,9 C 8,4 km/h (2 Bft)
03.01.2011 10:00 0,7 C 90 % 1018,5 hPa 0,0 l/m 8,6 km/h (2 Bft) W 0,00 h 0 W/m -0,7 C -1,4 C 8,6 km/h (2 Bft)
03.01.2011 11:00 1,3 C 90 % 1018,8 hPa 0,0 l/m 9,2 km/h (2 Bft) W 0,00 h 0 W/m -0,1 C -1,3 C 9,2 km/h (2 Bft)
03.01.2011 12:00 1,9 C 90 % 1018,5 hPa 0,0 l/m 12,2 km/h (2 Bft) W 0,00 h 0 W/m 0,4 C -2,8 C 12,2 km/h (2 Bft)
03.01.2011 13:00 2,1 C 89 % 1018,5 hPa 0,0 l/m 13,6 km/h (3 Bft) W 0,00 h 0 W/m 0,4 C -3,5 C 13,6 km/h (3 Bft)
03.01.2011 14:00 1,8 C 89 % 1018,5 hPa 0,0 l/m 13,9 km/h (3 Bft) W 0,00 h 0 W/m 0,1 C -4,1 C 13,9 km/h (3 Bft)
03.01.2011 15:00 1,2 C 89 % 1018,5 hPa 0,0 l/m 11,8 km/h (2 Bft) W 0,00 h 0 W/m -0,4 C -3,4 C 11,8 km/h (2 Bft)
03.01.2011 16:00 0,9 C 90 % 1018,2 hPa 0,0 l/m 11,2 km/h (2 Bft) W 0,00 h 0 W/m -0,6 C -3,3 C 11,2 km/h (2 Bft)
03.01.2011 17:00 1,1 C 91 % 1017,5 hPa 0,0 l/m 13,6 km/h (3 Bft) W 0,00 h 0 W/m -0,2 C -4,7 C 13,6 km/h (3 Bft)
03.01.2011 18:00 1,1 C 91 % 1017,5 hPa 0,0 l/m 14,9 km/h (3 Bft) W 0,00 h 0 W/m -0,2 C -5,5 C 14,9 km/h (3 Bft)
03.01.2011 19:00 1,2 C 91 % 1017,5 hPa 0,0 l/m 15,4 km/h (3 Bft) W 0,00 h 0 W/m -0,1 C -5,7 C 15,4 km/h (3 Bft)
03.01.2011 20:00 1,2 C 91 % 1017,5 hPa 0,0 l/m 12,9 km/h (3 Bft) W 0,00 h 0 W/m -0,1 C -4,0 C 12,9 km/h (3 Bft)
03.01.2011 21:00 1,3 C 91 % 1017,4 hPa 0,0 l/m 13,6 km/h (3 Bft) W-SW 0,00 h 0 W/m -0,1 C -4,5 C 13,6 km/h (3 Bft)
03.01.2011 22:00 1,2 C 90 % 1016,5 hPa 0,0 l/m 13,2 km/h (3 Bft) W-SW 0,00 h 0 W/m -0,2 C -4,4 C 13,2 km/h (3 Bft)
03.01.2011 23:00 1,2 C 91 % 1016,5 hPa 0,0 l/m 15,9 km/h (3 Bft) W-SW 0,00 h 0 W/m -0,1 C -6,0 C 15,9 km/h (3 Bft)
04.01.2011 00:00 1,0 C 91 % 1016,5 hPa 0,0 l/m 20,3 km/h (4 Bft) W-SW 0,00 h 0 W/m -0,3 C -8,4 C 20,3 km/h (4 Bft)
04.01.2011 01:00 1,1 C 92 % 1016,1 hPa 0,0 l/m 17,9 km/h (3 Bft) W-SW 0,00 h 0 W/m -0,1 C -7,2 C 17,9 km/h (3 Bft)
04.01.2011 02:00 1,0 C 92 % 1015,5 hPa 0,0 l/m 16,6 km/h (3 Bft) W-SW 0,00 h 0 W/m -0,1 C -6,5 C 16,6 km/h (3 Bft)
04.01.2011 03:00 0,8 C 92 % 1015,5 hPa 0,0 l/m 18,1 km/h (3 Bft) W-SW 0,00 h 0 W/m -0,4 C -7,7 C 18,1 km/h (3 Bft)
04.01.2011 04:00 0,7 C 93 % 1015,1 hPa 0,0 l/m 22,1 km/h (4 Bft) W-SW 0,00 h 0 W/m -0,3 C -9,6 C 22,1 km/h (4 Bft)
04.01.2011 05:00 0,9 C 94 % 1014,5 hPa 0,0 l/m 21,1 km/h (4 Bft) W-SW 0,00 h 0 W/m 0,0 C -8,9 C 21,1 km/h (4 Bft)
04.01.2011 06:00 0,8 C 94 % 1014,1 hPa 0,0 l/m 19,5 km/h (3 Bft) W-SW 0,00 h 0 W/m -0,0 C -8,3 C 19,5 km/h (3 Bft)
04.01.2011 07:00 0,8 C 94 % 1013,5 hPa 0,0 l/m 18,9 km/h (3 Bft) W-SW 0,00 h 0 W/m -0,1 C -8,0 C 18,9 km/h (3 Bft)
04.01.2011 08:00 0,8 C 94 % 1013,5 hPa 0,0 l/m 15,5 km/h (3 Bft) W-SW 0,00 h 0 W/m -0,2 C -6,1 C 15,5 km/h (3 Bft)
04.01.2011 09:00 0,7 C 93 % 1013,5 hPa 0,0 l/m 17,1 km/h (3 Bft) SW 0,00 h 0 W/m -0,3 C -7,1 C 17,1 km/h (3 Bft)
04.01.2011 10:00 1,0 C 92 % 1013,5 hPa 0,0 l/m 14,9 km/h (3 Bft) SW 0,00 h 0 W/m -0,1 C -5,6 C 14,9 km/h (3 Bft)
04.01.2011 11:00 1,2 C 90 % 1013,2 hPa 0,0 l/m 15,5 km/h (3 Bft) SW 0,00 h 0 W/m -0,3 C -5,7 C 15,5 km/h (3 Bft)
04.01.2011 12:00 1,5 C 87 % 1012,5 hPa 0,0 l/m 26,4 km/h (4 Bft) W-SW 0,00 h 0 W/m -0,4 C -10,2 C 26,4 km/h (4 Bft)
04.01.2011 13:00 1,5 C 86 % 1012,0 hPa 0,0 l/m 25,1 km/h (4 Bft) W-SW 0,00 h 0 W/m -0,6 C -9,7 C 25,1 km/h (4 Bft)
04.01.2011 14:00 1,4 C 86 % 1011,5 hPa 0,0 l/m 29,5 km/h (5 Bft) W-SW 0,00 h 0 W/m -0,6 C -11,2 C 29,5 km/h (5 Bft)
04.01.2011 15:00 1,2 C 88 % 1011,5 hPa 0,0 l/m 24,8 km/h (4 Bft) W-SW 0,00 h 0 W/m -0,6 C -9,9 C 24,8 km/h (4 Bft)
04.01.2011 16:00 1,2 C 82 % 1011,5 hPa 0,0 l/m 28,7 km/h (5 Bft) W-SW 0,00 h 0 W/m -1,6 C -11,2 C 28,7 km/h (5 Bft)
04.01.2011 17:00 1,1 C 79 % 1011,2 hPa 0,0 l/m 25,8 km/h (4 Bft) W-SW 0,00 h 0 W/m -2,1 C -10,5 C 25,8 km/h (4 Bft)
04.01.2011 18:00 1,0 C 79 % 1010,8 hPa 0,0 l/m 23,2 km/h (4 Bft) W-SW 0,00 h 0 W/m -2,2 C -9,6 C 23,2 km/h (4 Bft)
04.01.2011 19:00 1,1 C 79 % 1010,5 hPa 0,0 l/m 23,5 km/h (4 Bft) SW 0,00 h 0 W/m -2,1 C -9,5 C 23,5 km/h (4 Bft)
04.01.2011 20:00 0,9 C 78 % 1010,5 hPa 0,0 l/m 25,6 km/h (4 Bft) SW 0,00 h 0 W/m -2,5 C -10,7 C 25,6 km/h (4 Bft)
04.01.2011 21:00 0,8 C 79 % 1010,5 hPa 0,0 l/m 26,8 km/h (4 Bft) W-SW 0,00 h 0 W/m -2,4 C -11,3 C 26,8 km/h (4 Bft)
04.01.2011 22:00 0,5 C 80 % 1010,5 hPa 0,0 l/m 27,5 km/h (5 Bft) W-SW 0,00 h 0 W/m -2,6 C -11,9 C 27,5 km/h (5 Bft)
04.01.2011 23:00 0,2 C 83 % 1010,5 hPa 0,0 l/m 28,8 km/h (5 Bft) W-SW 0,00 h 0 W/m -2,3 C -12,8 C 28,8 km/h (5 Bft)
05.01.2011 00:00 0,1 C 83 % 1010,5 hPa 0,0 l/m 27,8 km/h (5 Bft) W-SW 0,00 h 0 W/m -2,5 C -12,5 C 27,8 km/h (5 Bft)
05.01.2011 01:00 -0,1 C 82 % 1010,2 hPa 0,0 l/m 31,3 km/h (5 Bft) W-SW 0,00 h 0 W/m -2,9 C -13,9 C 31,3 km/h (5 Bft)
05.01.2011 02:00 -0,6 C 81 % 1009,5 hPa 0,0 l/m 27,0 km/h (4 Bft) W-SW 0,00 h 0 W/m -3,5 C -13,2 C 27,0 km/h (4 Bft)
05.01.2011 03:00 -0,8 C 81 % 1009,5 hPa 0,0 l/m 29,6 km/h (5 Bft) W-SW 0,00 h 0 W/m -3,6 C -14,3 C 29,6 km/h (5 Bft)
05.01.2011 04:00 -0,8 C 81 % 1009,5 hPa 0,0 l/m 26,8 km/h (4 Bft) SW 0,00 h 0 W/m -3,7 C -13,4 C 26,8 km/h (4 Bft)
05.01.2011 05:00 -0,7 C 81 % 1009,0 hPa 0,0 l/m 22,4 km/h (4 Bft) SW 0,00 h 0 W/m -3,5 C -11,6 C 22,4 km/h (4 Bft)
05.01.2011 06:00 -0,9 C 80 % 1008,5 hPa 0,0 l/m 22,6 km/h (4 Bft) SW 0,00 h 0 W/m -3,9 C -11,8 C 22,6 km/h (4 Bft)
05.01.2011 07:00 -1,3 C 80 % 1008,5 hPa 0,0 l/m 23,8 km/h (4 Bft) SW 0,00 h 0 W/m -4,3 C -13,0 C 23,8 km/h (4 Bft)
05.01.2011 08:00 -1,4 C 80 % 1008,5 hPa 0,0 l/m 22,8 km/h (4 Bft) SW 0,00 h 0 W/m -4,4 C -12,6 C 22,8 km/h (4 Bft)
05.01.2011 09:00 -1,3 C 80 % 1008,5 hPa 0,0 l/m 22,2 km/h (4 Bft) SW 0,00 h 0 W/m -4,4 C -12,3 C 22,2 km/h (4 Bft)
05.01.2011 10:00 -1,1 C 78 % 1008,5 hPa 0,0 l/m 21,5 km/h (4 Bft) SW 0,00 h 0 W/m -4,5 C -11,7 C 21,5 km/h (4 Bft)
05.01.2011 11:00 -0,7 C 75 % 1008,0 hPa 0,0 l/m 22,2 km/h (4 Bft) S-SW 0,00 h 0 W/m -4,6 C -11,5 C 22,2 km/h (4 Bft)
05.01.2011 12:00 -0,4 C 74 % 1007,3 hPa 0,0 l/m 21,9 km/h (4 Bft) SW 0,00 h 0 W/m -4,5 C -11,0 C 21,9 km/h (4 Bft)
05.01.2011 13:00 0,2 C 72 % 1006,5 hPa 0,0 l/m 20,7 km/h (4 Bft) S-SW 0,00 h 0 W/m -4,3 C -9,5 C 20,7 km/h (4 Bft)
05.01.2011 14:00 0,4 C 70 % 1005,9 hPa 0,0 l/m 19,2 km/h (3 Bft) SW 0,00 h 0 W/m -4,4 C -8,5 C 19,2 km/h (3 Bft)
05.01.2011 15:00 -0,2 C 70 % 1005,5 hPa 0,0 l/m 15,2 km/h (3 Bft) S 0,00 h 0 W/m -4,9 C -7,3 C 15,2 km/h (3 Bft)
05.01.2011 16:00 -0,8 C 72 % 1004,9 hPa 0,0 l/m 17,2 km/h (3 Bft) S 0,00 h 0 W/m -5,2 C -9,1 C 17,2 km/h (3 Bft)
05.01.2011 17:00 -1,3 C 74 % 1004,4 hPa 0,0 l/m 18,6 km/h (3 Bft) S 0,00 h 0 W/m -5,4 C -10,6 C 18,6 km/h (3 Bft)
05.01.2011 18:00 -1,8 C 74 % 1003,5 hPa 0,0 l/m 20,7 km/h (4 Bft) S 0,00 h 0 W/m -5,8 C -12,2 C 20,7 km/h (4 Bft)
05.01.2011 19:00 -2,1 C 75 % 1002,5 hPa 0,0 l/m 19,9 km/h (4 Bft) S 0,00 h 0 W/m -5,9 C -12,2 C 19,9 km/h (4 Bft)
05.01.2011 20:00 -2,2 C 75 % 1001,5 hPa 0,0 l/m 19,1 km/h (3 Bft) S 0,00 h 0 W/m -5,9 C -11,9 C 19,1 km/h (3 Bft)
05.01.2011 21:00 -2,5 C 76 % 1000,3 hPa 0,0 l/m 21,0 km/h (4 Bft) S 0,00 h 0 W/m -6,2 C -13,3 C 21,0 km/h (4 Bft)
05.01.2011 22:00 -2,6 C 76 % 999,3 hPa 0,0 l/m 24,1 km/h (4 Bft) S 0,00 h 0 W/m -6,2 C -14,9 C 24,1 km/h (4 Bft)
05.01.2011 23:00 -2,7 C 77 % 997,9 hPa 0,0 l/m 20,9 km/h (4 Bft) S 0,00 h 0 W/m -6,1 C -13,5 C 20,9 km/h (4 Bft)
06.01.2011 00:00 -2,1 C 77 % 996,2 hPa 0,0 l/m 23,7 km/h (4 Bft) S 0,00 h 0 W/m -5,6 C -13,9 C 23,7 km/h (4 Bft)
06.01.2011 01:00 -1,5 C 84 % 995,1 hPa 0,0 l/m 20,8 km/h (4 Bft) S 0,00 h 0 W/m -3,8 C -11,9 C 20,8 km/h (4 Bft)
06.01.2011 02:00 -0,8 C 88 % 994,0 hPa 0,0 l/m 18,3 km/h (3 Bft) S 0,00 h 0 W/m -2,6 C -9,7 C 18,3 km/h (3 Bft)
06.01.2011 03:00 -0,3 C 90 % 993,5 hPa 0,0 l/m 15,5 km/h (3 Bft) S 0,00 h 0 W/m -1,8 C -7,6 C 15,5 km/h (3 Bft)
06.01.2011 04:00 0,6 C 92 % 992,5 hPa 0,0 l/m 17,5 km/h (3 Bft) SW 0,00 h 0 W/m -0,6 C -7,5 C 17,5 km/h (3 Bft)
06.01.2011 05:00 1,3 C 93 % 991,7 hPa 0,0 l/m 23,7 km/h (4 Bft) SW 0,00 h 0 W/m 0,2 C -9,3 C 23,7 km/h (4 Bft)
06.01.2011 06:00 1,7 C 94 % 991,5 hPa 0,0 l/m 26,8 km/h (4 Bft) W-SW 0,00 h 0 W/m 0,9 C -9,9 C 26,8 km/h (4 Bft)
06.01.2011 07:00 2,0 C 95 % 991,5 hPa 0,0 l/m 23,4 km/h (4 Bft) W-SW 0,00 h 0 W/m 1,2 C -8,4 C 23,4 km/h (4 Bft)
06.01.2011 08:00 2,3 C 95 % 992,3 hPa 0,0 l/m 25,8 km/h (4 Bft) W-SW 0,00 h 0 W/m 1,5 C -8,9 C 25,8 km/h (4 Bft)
06.01.2011 09:00 2,3 C 95 % 992,5 hPa 0,0 l/m 25,1 km/h (4 Bft) W-SW 0,00 h 0 W/m 1,6 C -8,6 C 25,1 km/h (4 Bft)
06.01.2011 10:00 2,5 C 95 % 993,4 hPa 0,0 l/m 20,1 km/h (4 Bft) W-SW 0,00 h 0 W/m 1,8 C -6,4 C 20,1 km/h (4 Bft)
06.01.2011 11:00 2,4 C 95 % 993,5 hPa 0,0 l/m 20,0 km/h (4 Bft) W-SW 0,00 h 0 W/m 1,7 C -6,4 C 20,0 km/h (4 Bft)
06.01.2011 12:00 2,7 C 95 % 993,5 hPa 0,3 l/m 20,3 km/h (4 Bft) W-SW 0,00 h 0 W/m 2,0 C -6,3 C 20,3 km/h (4 Bft)
06.01.2011 13:00 2,8 C 95 % 993,5 hPa 0,0 l/m 15,8 km/h (3 Bft) W-SW 0,00 h 0 W/m 2,0 C -3,9 C 15,8 km/h (3 Bft)
06.01.2011 14:00 2,8 C 94 % 993,9 hPa 0,0 l/m 9,0 km/h (2 Bft) SW 0,00 h 0 W/m 2,0 C 0,5 C 9,0 km/h (2 Bft)
06.01.2011 15:00 2,9 C 94 % 993,6 hPa 0,0 l/m 8,6 km/h (2 Bft) SW 0,00 h 0 W/m 2,0 C 0,9 C 8,6 km/h (2 Bft)
06.01.2011 16:00 2,8 C 94 % 993,5 hPa 0,3 l/m 5,7 km/h (2 Bft) S-SW 0,00 h 0 W/m 1,9 C 2,1 C 5,7 km/h (2 Bft)
06.01.2011 17:00 2,6 C 94 % 993,5 hPa 0,0 l/m 2,2 km/h (1 Bft) S-SW 0,00 h 0 W/m 1,8 C 2,5 C 2,2 km/h (1 Bft)
06.01.2011 18:00 2,7 C 94 % 992,9 hPa 0,3 l/m 3,3 km/h (1 Bft) S-SO 0,00 h 0 W/m 1,8 C 2,3 C 3,3 km/h (1 Bft)
06.01.2011 19:00 2,7 C 94 % 993,3 hPa 1,2 l/m 0,3 km/h (0 Bft) S-SO 0,00 h 0 W/m 1,8 C 2,7 C 0,3 km/h (0 Bft)
06.01.2011 20:00 2,7 C 93 % 992,9 hPa 1,2 l/m 1,2 km/h (1 Bft) S-SO 0,00 h 0 W/m 1,7 C 2,7 C 1,2 km/h (1 Bft)
06.01.2011 21:00 2,4 C 93 % 993,2 hPa 0,6 l/m 0,0 km/h (0 Bft) N 0,00 h 0 W/m 1,4 C 2,4 C 0,0 km/h (0 Bft)
06.01.2011 22:00 2,4 C 93 % 993,5 hPa 0,3 l/m 0,0 km/h (0 Bft) N 0,00 h 0 W/m 1,4 C 2,4 C 0,0 km/h (0 Bft)
06.01.2011 23:00 2,2 C 93 % 993,9 hPa 0,0 l/m 0,3 km/h (0 Bft) S-SO 0,00 h 0 W/m 1,1 C 2,2 C 0,3 km/h (0 Bft)
07.01.2011 00:00 2,0 C 93 % 995,6 hPa 0,0 l/m 4,4 km/h (1 Bft) NW 0,00 h 0 W/m 1,0 C 1,1 C 4,4 km/h (1 Bft)
07.01.2011 01:00 2,3 C 94 % 996,9 hPa 0,0 l/m 14,4 km/h (3 Bft) NW 0,00 h 0 W/m 1,3 C -3,8 C 14,4 km/h (3 Bft)
07.01.2011 02:00 2,5 C 94 % 998,5 hPa 0,0 l/m 15,6 km/h (3 Bft) NW 0,00 h 0 W/m 1,6 C -4,3 C 15,6 km/h (3 Bft)
07.01.2011 03:00 2,3 C 94 % 1000,0 hPa 0,0 l/m 13,9 km/h (3 Bft) W 0,00 h 0 W/m 1,5 C -3,4 C 13,9 km/h (3 Bft)
07.01.2011 04:00 1,9 C 94 % 1001,7 hPa 0,0 l/m 13,6 km/h (3 Bft) W-SW 0,00 h 0 W/m 1,1 C -3,7 C 13,6 km/h (3 Bft)
07.01.2011 05:00 1,9 C 94 % 1003,0 hPa 0,0 l/m 11,8 km/h (2 Bft) W-SW 0,00 h 0 W/m 1,1 C -2,6 C 11,8 km/h (2 Bft)
07.01.2011 06:00 1,9 C 94 % 1003,8 hPa 0,0 l/m 11,7 km/h (2 Bft) W 0,00 h 0 W/m 1,0 C -2,5 C 11,7 km/h (2 Bft)
07.01.2011 07:00 1,9 C 94 % 1005,0 hPa 0,0 l/m 8,3 km/h (2 Bft) W-SW 0,00 h 0 W/m 0,9 C -0,2 C 8,3 km/h (2 Bft)
07.01.2011 08:00 1,4 C 93 % 1005,8 hPa 0,0 l/m 5,5 km/h (2 Bft) W-SW 0,00 h 0 W/m 0,3 C 1,2 C 5,5 km/h (2 Bft)
07.01.2011 09:00 1,3 C 93 % 1006,6 hPa 0,0 l/m 0,0 km/h (0 Bft) N 0,00 h 0 W/m 0,3 C 1,3 C 0,0 km/h (0 Bft)
07.01.2011 10:00 1,4 C 93 % 1007,5 hPa 0,0 l/m 0,0 km/h (0 Bft) N 0,00 h 0 W/m 0,4 C 1,4 C 0,0 km/h (0 Bft)
07.01.2011 11:00 1,5 C 92 % 1007,5 hPa 0,0 l/m 0,8 km/h (0 Bft) S 0,00 h 0 W/m 0,4 C 1,3 C 0,8 km/h (0 Bft)
07.01.2011 12:00 1,6 C 93 % 1007,5 hPa 0,0 l/m 9,3 km/h (2 Bft) S 0,00 h 0 W/m 0,6 C -1,1 C 9,3 km/h (2 Bft)
07.01.2011 13:00 2,1 C 93 % 1006,5 hPa 0,0 l/m 10,0 km/h (2 Bft) SO 0,00 h 0 W/m 1,1 C -1,2 C 10,0 km/h (2 Bft)
07.01.2011 14:00 2,2 C 93 % 1006,5 hPa 0,0 l/m 8,2 km/h (2 Bft) SO 0,00 h 0 W/m 1,2 C 0,2 C 8,2 km/h (2 Bft)
07.01.2011 15:00 2,2 C 93 % 1005,8 hPa 0,0 l/m 7,0 km/h (2 Bft) SO 0,00 h 0 W/m 1,2 C 0,6 C 7,0 km/h (2 Bft)
07.01.2011 16:00 2,0 C 93 % 1005,3 hPa 0,0 l/m 13,6 km/h (3 Bft) SO 0,00 h 0 W/m 0,9 C -3,8 C 13,6 km/h (3 Bft)
07.01.2011 17:00 2,1 C 93 % 1004,0 hPa 0,0 l/m 16,7 km/h (3 Bft) SO 0,00 h 0 W/m 1,1 C -5,3 C 16,7 km/h (3 Bft)
07.01.2011 18:00 2,1 C 93 % 1003,3 hPa 0,0 l/m 15,4 km/h (3 Bft) SO 0,00 h 0 W/m 1,1 C -4,5 C 15,4 km/h (3 Bft)
07.01.2011 19:00 2,4 C 93 % 1002,5 hPa 0,0 l/m 20,4 km/h (4 Bft) SO 0,00 h 0 W/m 1,4 C -6,7 C 20,4 km/h (4 Bft)
07.01.2011 20:00 2,5 C 93 % 1002,4 hPa 0,3 l/m 19,7 km/h (3 Bft) S-SO 0,00 h 0 W/m 1,6 C -6,2 C 19,7 km/h (3 Bft)
07.01.2011 21:00 2,7 C 94 % 1001,5 hPa 0,3 l/m 16,1 km/h (3 Bft) S 0,00 h 0 W/m 1,8 C -4,2 C 16,1 km/h (3 Bft)
07.01.2011 22:00 3,0 C 94 % 1001,5 hPa 0,0 l/m 15,3 km/h (3 Bft) S 0,00 h 0 W/m 2,1 C -3,3 C 15,3 km/h (3 Bft)
07.01.2011 23:00 3,3 C 95 % 1001,5 hPa 0,0 l/m 10,7 km/h (2 Bft) S-SO 0,00 h 0 W/m 2,5 C -0,3 C 10,7 km/h (2 Bft)
08.01.2011 00:00 3,6 C 95 % 1001,5 hPa 0,0 l/m 9,1 km/h (2 Bft) S 0,00 h 0 W/m 2,9 C 1,2 C 9,1 km/h (2 Bft)
08.01.2011 01:00 4,0 C 95 % 1001,5 hPa 0,0 l/m 8,3 km/h (2 Bft) S 0,00 h 0 W/m 3,3 C 2,3 C 8,3 km/h (2 Bft)
08.01.2011 02:00 4,9 C 96 % 1001,3 hPa 0,0 l/m 12,0 km/h (2 Bft) S-SO 0,00 h 0 W/m 4,3 C 0,6 C 12,0 km/h (2 Bft)
08.01.2011 03:00 5,0 C 96 % 1000,5 hPa 0,0 l/m 11,3 km/h (2 Bft) S-SO 0,00 h 0 W/m 4,5 C 1,3 C 11,3 km/h (2 Bft)
08.01.2011 04:00 5,4 C 96 % 1000,5 hPa 0,3 l/m 13,9 km/h (3 Bft) S 0,00 h 0 W/m 4,8 C 0,2 C 13,9 km/h (3 Bft)
08.01.2011 05:00 5,7 C 97 % 999,8 hPa 0,3 l/m 18,6 km/h (3 Bft) SW 0,00 h 0 W/m 5,2 C -1,7 C 18,6 km/h (3 Bft)
08.01.2011 06:00 5,7 C 97 % 999,5 hPa 0,6 l/m 19,4 km/h (3 Bft) SW 0,00 h 0 W/m 5,3 C -1,9 C 19,4 km/h (3 Bft)
08.01.2011 07:00 5,8 C 97 % 998,9 hPa 0,0 l/m 45,6 km/h (6 Bft) W-SW 0,00 h 0 W/m 5,4 C -7,2 C 45,6 km/h (6 Bft)
08.01.2011 08:00 5,8 C 96 % 999,0 hPa 0,0 l/m 13,6 km/h (3 Bft) S 0,00 h 0 W/m 5,3 C 0,8 C 13,6 km/h (3 Bft)
08.01.2011 09:00 5,9 C 97 % 998,5 hPa 0,0 l/m 18,8 km/h (3 Bft) S 0,00 h 0 W/m 5,5 C -1,4 C 18,8 km/h (3 Bft)
08.01.2011 10:00 6,6 C 96 % 997,6 hPa 0,0 l/m 14,9 km/h (3 Bft) S 0,00 h 0 W/m 6,0 C 1,0 C 14,9 km/h (3 Bft)
08.01.2011 11:00 7,1 C 95 % 997,2 hPa 0,0 l/m 16,3 km/h (3 Bft) S 0,00 h 0 W/m 6,3 C 1,0 C 16,3 km/h (3 Bft)
08.01.2011 12:00 7,8 C 93 % 996,3 hPa 0,0 l/m 24,9 km/h (4 Bft) SW 0,00 h 0 W/m 6,7 C -0,9 C 24,9 km/h (4 Bft)
08.01.2011 13:00 8,8 C 89 % 995,5 hPa 0,0 l/m 27,7 km/h (5 Bft) SW 0,00 h 0 W/m 7,1 C -0,3 C 27,7 km/h (5 Bft)
08.01.2011 14:00 9,0 C 87 % 994,8 hPa 0,0 l/m 29,8 km/h (5 Bft) SW 0,00 h 0 W/m 6,9 C -0,6 C 29,8 km/h (5 Bft)
08.01.2011 15:00 9,2 C 85 % 994,5 hPa 0,0 l/m 29,4 km/h (5 Bft) SW 0,00 h 0 W/m 6,8 C -0,3 C 29,4 km/h (5 Bft)
08.01.2011 16:00 9,1 C 86 % 994,7 hPa 0,0 l/m 32,1 km/h (5 Bft) SW 0,00 h 0 W/m 6,8 C -1,0 C 32,1 km/h (5 Bft)
08.01.2011 17:00 9,1 C 86 % 995,5 hPa 0,0 l/m 37,4 km/h (5 Bft) W-SW 0,00 h 0 W/m 6,8 C -1,9 C 37,4 km/h (5 Bft)
08.01.2011 18:00 8,5 C 89 % 996,4 hPa 0,3 l/m 40,4 km/h (6 Bft) W-SW 0,00 h 0 W/m 6,7 C -3,4 C 40,4 km/h (6 Bft)
08.01.2011 19:00 8,0 C 87 % 997,5 hPa 0,0 l/m 37,3 km/h (5 Bft) W 0,00 h 0 W/m 5,9 C -3,7 C 37,3 km/h (5 Bft)
08.01.2011 20:00 7,1 C 85 % 998,9 hPa 0,0 l/m 33,8 km/h (5 Bft) W 0,00 h 0 W/m 4,8 C -4,1 C 33,8 km/h (5 Bft)
08.01.2011 21:00 5,3 C 84 % 999,8 hPa 0,0 l/m 26,3 km/h (4 Bft) W 0,00 h 0 W/m 2,8 C -4,9 C 26,3 km/h (4 Bft)
08.01.2011 22:00 4,9 C 83 % 1000,5 hPa 0,0 l/m 28,1 km/h (5 Bft) W 0,00 h 0 W/m 2,3 C -6,0 C 28,1 km/h (5 Bft)
08.01.2011 23:00 5,1 C 82 % 1000,7 hPa 0,0 l/m 25,5 km/h (4 Bft) W 0,00 h 0 W/m 2,4 C -4,9 C 25,5 km/h (4 Bft)
09.01.2011 00:00 4,8 C 83 % 1001,5 hPa 0,0 l/m 20,0 km/h (4 Bft) W-SW 0,00 h 0 W/m 2,1 C -3,3 C 20,0 km/h (4 Bft)
09.01.2011 01:00 4,7 C 84 % 1001,5 hPa 0,0 l/m 16,7 km/h (3 Bft) W-SW 0,00 h 0 W/m 2,2 C -2,1 C 16,7 km/h (3 Bft)
09.01.2011 02:00 4,4 C 84 % 1001,5 hPa 0,0 l/m 14,1 km/h (3 Bft) W-SW 0,00 h 0 W/m 2,0 C -0,9 C 14,1 km/h (3 Bft)
09.01.2011 03:00 4,1 C 85 % 1001,5 hPa 0,0 l/m 13,8 km/h (3 Bft) W-SW 0,00 h 0 W/m 1,8 C -1,3 C 13,8 km/h (3 Bft)
09.01.2011 04:00 3,9 C 84 % 1001,5 hPa 0,0 l/m 14,1 km/h (3 Bft) W-SW 0,00 h 0 W/m 1,5 C -1,7 C 14,1 km/h (3 Bft)
09.01.2011 05:00 3,7 C 86 % 1001,5 hPa 0,0 l/m 14,8 km/h (3 Bft) W-SW 0,00 h 0 W/m 1,6 C -2,2 C 14,8 km/h (3 Bft)
09.01.2011 06:00 3,4 C 86 % 1001,5 hPa 0,0 l/m 19,3 km/h (3 Bft) W-SW 0,00 h 0 W/m 1,3 C -4,9 C 19,3 km/h (3 Bft)
09.01.2011 07:00 3,2 C 86 % 1001,5 hPa 0,0 l/m 20,6 km/h (4 Bft) W-SW 0,00 h 0 W/m 1,1 C -5,6 C 20,6 km/h (4 Bft)
09.01.2011 08:00 3,0 C 86 % 1002,2 hPa 0,0 l/m 21,1 km/h (4 Bft) W-SW 0,00 h 0 W/m 0,9 C -6,1 C 21,1 km/h (4 Bft)
09.01.2011 09:00 2,9 C 87 % 1002,5 hPa 0,0 l/m 21,0 km/h (4 Bft) W-SW 0,00 h 0 W/m 0,9 C -6,3 C 21,0 km/h (4 Bft)
09.01.2011 10:00 3,1 C 88 % 1003,2 hPa 0,0 l/m 24,5 km/h (4 Bft) W-SW 0,00 h 0 W/m 1,3 C -7,1 C 24,5 km/h (4 Bft)
09.01.2011 11:00 3,8 C 86 % 1003,5 hPa 0,0 l/m 29,3 km/h (5 Bft) W-SW 0,00 h 0 W/m 1,6 C -7,9 C 29,3 km/h (5 Bft)
09.01.2011 12:00 4,2 C 84 % 1004,5 hPa 0,0 l/m 27,1 km/h (5 Bft) W-SW 0,00 h 0 W/m 1,8 C -6,7 C 27,1 km/h (5 Bft)
09.01.2011 13:00 4,7 C 82 % 1004,5 hPa 0,0 l/m 35,0 km/h (5 Bft) W 0,00 h 0 W/m 1,9 C -8,0 C 35,0 km/h (5 Bft)
09.01.2011 14:00 4,6 C 82 % 1005,2 hPa 0,0 l/m 31,8 km/h (5 Bft) W-SW 0,00 h 0 W/m 1,8 C -7,3 C 31,8 km/h (5 Bft)
09.01.2011 15:00 4,2 C 82 % 1006,1 hPa 0,0 l/m 27,0 km/h (5 Bft) W-SW 0,00 h 0 W/m 1,5 C -6,7 C 27,0 km/h (5 Bft)
09.01.2011 16:00 4,1 C 82 % 1007,0 hPa 0,0 l/m 29,7 km/h (5 Bft) W-SW 0,00 h 0 W/m 1,4 C -7,5 C 29,7 km/h (5 Bft)
09.01.2011 17:00 4,1 C 82 % 1007,8 hPa 0,0 l/m 33,9 km/h (5 Bft) W 0,00 h 0 W/m 1,2 C -8,7 C 33,9 km/h (5 Bft)
09.01.2011 18:00 3,9 C 82 % 1008,5 hPa 0,0 l/m 34,8 km/h (5 Bft) W 0,00 h 0 W/m 1,1 C -9,0 C 34,8 km/h (5 Bft)
09.01.2011 19:00 3,4 C 83 % 1009,7 hPa 0,0 l/m 32,1 km/h (5 Bft) W 0,00 h 0 W/m 0,9 C -9,1 C 32,1 km/h (5 Bft)
09.01.2011 20:00 3,1 C 85 % 1010,8 hPa 0,0 l/m 28,8 km/h (5 Bft) W 0,00 h 0 W/m 0,8 C -8,7 C 28,8 km/h (5 Bft)
09.01.2011 21:00 3,0 C 84 % 1011,5 hPa 0,0 l/m 29,4 km/h (5 Bft) W 0,00 h 0 W/m 0,6 C -8,9 C 29,4 km/h (5 Bft)
09.01.2011 22:00 3,0 C 85 % 1012,5 hPa 0,0 l/m 28,3 km/h (5 Bft) W-SW 0,00 h 0 W/m 0,7 C -8,7 C 28,3 km/h (5 Bft)
09.01.2011 23:00 3,4 C 85 % 1013,1 hPa 0,0 l/m 27,0 km/h (5 Bft) W-SW 0,00 h 0 W/m 1,1 C -7,7 C 27,0 km/h (5 Bft)
Min-Datum _ 05.01.11 05.01.11 06.01.11 - 03.01.11 - - - 05.01.11 06.01.11 03.01.11
_ Min-Zeit 23:00 14:14 05:15 - 04:29 - - - 23:04 00:20 04:29
Minimum _ -2,8 C 69 % 991,5 hPa - 0,0 km/h (0 Bft) - - - -6,4 C -17,2 C 0,0 km/h (0 Bft)
Max-Datum _ 08.01.11 08.01.11 03.01.11 06.01.11 08.01.11 - 03.01.11 03.01.11 08.01.11 08.01.11 08.01.11
_ Max-Zeit 14:00 04:59 09:34 19:14 07:00 - 00:05 00:05 13:25 01:35 07:00
Maximum _ 9,2 C 97 % 1019,5 hPa 1,2 l/m 52,2 km/h
W-SW (7 Bft)
- 0,00 h 0 W/m 7,4 C 4,0 C 52,2 km/h
W-SW (7 Bft)
Durchschnitt _ 2,1 C 88 % 1005,3 hPa #6,3 l/m 18,3 km/h (3 Bft) W-SW #0 min. 0 W/m 0,3 C -5,4 C 18,3 km/h (3 Bft)
copyright by Holger Just